createdAt,value
2018-07-04T00:00:15.584Z,98094.59
2018-07-04T00:03:04.167Z,98087.77
2018-07-04T00:05:45.019Z,98095.60
2018-07-04T00:08:27.514Z,98088.25
2018-07-04T00:11:08.448Z,98081.92
2018-07-04T00:13:49.907Z,98084.94
2018-07-04T00:16:31.457Z,98084.03
2018-07-04T00:19:14.888Z,98075.06
2018-07-04T00:21:56.457Z,98077.84
2018-07-04T00:24:42.259Z,98075.93
2018-07-04T00:27:23.559Z,98077.25
2018-07-04T00:32:59.945Z,98077.00
2018-07-04T00:35:40.648Z,98079.34
2018-07-04T00:38:26.544Z,98080.98
2018-07-04T00:41:09.211Z,98077.76
2018-07-04T00:43:50.513Z,98071.64
2018-07-04T00:46:31.352Z,98075.94
2018-07-04T00:52:05.452Z,98077.44
2018-07-04T00:54:49.762Z,98067.62
2018-07-04T00:57:34.734Z,98063.28
2018-07-04T01:00:16.057Z,98066.94
2018-07-04T01:02:58.325Z,98062.31
2018-07-04T01:05:43.334Z,98059.65
2018-07-04T01:08:33.202Z,98063.33
2018-07-04T01:15:06.666Z,98058.33
2018-07-04T01:17:48.248Z,98058.33
2018-07-04T01:20:39.643Z,98052.97
2018-07-04T01:23:20.660Z,98049.81
2018-07-04T01:26:09.266Z,98050.07
2018-07-04T01:28:53.117Z,98053.38
2018-07-04T01:31:36.586Z,98056.17
2018-07-04T01:34:17.419Z,98054.61
2018-07-04T01:37:02.222Z,98045.80
2018-07-04T01:39:47.100Z,98046.56
2018-07-04T01:45:20.386Z,98040.66
2018-07-04T01:48:05.268Z,98036.13
2018-07-04T01:50:52.651Z,98038.30
2018-07-04T01:53:33.980Z,98039.58
2018-07-04T02:04:59.726Z,98027.89
2018-07-04T02:07:40.845Z,98024.86
2018-07-04T02:34:15.760Z,98027.20
2018-07-04T02:36:56.898Z,98026.23
2018-07-04T02:39:38.320Z,98030.02
2018-07-04T02:42:20.518Z,98037.48
2018-07-04T02:45:01.400Z,98041.70
2018-07-04T02:53:27.713Z,98030.81
2018-07-04T02:56:09.392Z,98036.98
2018-07-04T02:58:50.581Z,98040.58
2018-07-04T03:01:33.628Z,98039.38
2018-07-04T03:04:14.971Z,98036.08
2018-07-04T03:07:03.619Z,98043.83
2018-07-04T03:09:44.282Z,98044.05
2018-07-04T03:12:26.550Z,98042.70
2018-07-04T03:15:07.590Z,98043.00
2018-07-04T03:17:49.666Z,98040.84
2018-07-04T03:20:30.207Z,98041.08
2018-07-04T03:23:17.314Z,98044.97
2018-07-04T03:25:57.845Z,98044.05
2018-07-04T03:28:41.054Z,98052.08
2018-07-04T03:31:21.626Z,98056.58
2018-07-04T03:34:03.640Z,98046.92
2018-07-04T03:36:44.207Z,98047.48
2018-07-04T03:39:25.218Z,98042.67
2018-07-04T03:42:05.862Z,98038.09
2018-07-04T03:44:47.168Z,98040.03
2018-07-04T03:50:33.125Z,98043.72
2018-07-04T03:53:21.053Z,98049.16
2018-07-04T03:56:03.391Z,98050.53
2018-07-04T03:58:49.360Z,98047.88
2018-07-04T04:01:33.362Z,98047.98
2018-07-04T04:04:13.793Z,98049.98
2018-07-04T04:06:56.771Z,98055.97
2018-07-04T04:09:44.364Z,98051.01
2018-07-04T04:12:27.444Z,98051.29
2018-07-04T04:15:08.515Z,98057.78
2018-07-04T04:17:52.038Z,98065.23
2018-07-04T04:20:34.146Z,98061.90
2018-07-04T04:23:18.538Z,98066.91
2018-07-04T04:25:59.225Z,98063.70
2018-07-04T04:28:40.167Z,98063.05
2018-07-04T04:31:20.670Z,98059.84
2018-07-04T04:34:02.510Z,98062.59
2018-07-04T04:36:43.273Z,98057.08
2018-07-04T04:39:24.506Z,98060.19
2018-07-04T04:42:04.973Z,98062.80
2018-07-04T04:44:52.637Z,98067.00
2018-07-04T04:47:33.193Z,98068.59
2018-07-04T04:50:21.457Z,98062.77
2018-07-04T04:53:02.394Z,98058.04
2018-07-04T04:55:43.569Z,98066.08
2018-07-04T04:58:27.558Z,98054.30
2018-07-04T05:01:08.042Z,98059.30
2018-07-04T05:03:48.632Z,98061.69
2018-07-04T05:06:28.999Z,98068.45
2018-07-04T05:09:10.673Z,98065.01
2018-07-04T05:11:51.118Z,98064.30
2018-07-04T05:14:33.908Z,98060.98
2018-07-04T05:17:14.263Z,98066.05
2018-07-04T05:19:55.065Z,98066.77
2018-07-04T05:22:35.506Z,98075.11
2018-07-04T05:25:16.394Z,98075.84
2018-07-04T05:27:56.966Z,98077.16
2018-07-04T05:30:37.860Z,98082.88
2018-07-04T05:33:18.474Z,98079.39
2018-07-04T05:35:59.286Z,98077.81
2018-07-04T05:38:39.822Z,98073.92
2018-07-04T05:41:21.811Z,98074.63
2018-07-04T05:44:06.866Z,98079.41
2018-07-04T05:46:49.119Z,98078.84
2018-07-04T05:49:30.172Z,98085.27
2018-07-04T05:52:11.090Z,98079.71
2018-07-04T05:54:51.643Z,98084.62
2018-07-04T05:57:37.980Z,98081.51
2018-07-04T06:00:19.257Z,98086.55
2018-07-04T06:03:04.820Z,98088.88
2018-07-04T06:05:47.765Z,98093.22
2018-07-04T06:08:33.905Z,98091.40
2018-07-04T06:11:17.970Z,98090.17
2018-07-04T06:14:00.537Z,98087.98
2018-07-04T06:16:41.027Z,98093.42
2018-07-04T06:19:23.085Z,98095.91
2018-07-04T06:22:03.528Z,98095.37
2018-07-04T06:24:45.378Z,98089.17
2018-07-04T06:30:18.118Z,98093.81
2018-07-04T06:32:58.684Z,98094.11
2018-07-04T06:35:39.878Z,98092.72
2018-07-04T06:38:08.642Z,98096.02
2018-07-04T06:40:45.104Z,98099.11
2018-07-04T06:43:14.521Z,98104.04
2018-07-04T06:45:42.824Z,98100.95
2018-07-04T06:48:13.931Z,98097.89
2018-07-04T06:50:42.234Z,98104.13
2018-07-04T06:53:14.199Z,98098.77
2018-07-04T06:55:43.315Z,98099.72
2018-07-04T06:58:12.222Z,98097.50
2018-07-04T07:00:40.581Z,98100.54
2018-07-04T07:03:21.259Z,98101.43
2018-07-04T07:06:05.109Z,98099.64
2018-07-04T07:08:46.915Z,98097.11
2018-07-04T07:11:27.453Z,98096.34
2018-07-04T07:14:08.422Z,98090.50
2018-07-04T07:16:48.973Z,98083.10
2018-07-04T07:19:29.730Z,98081.85
2018-07-04T07:22:10.402Z,98079.00
2018-07-04T07:24:51.091Z,98079.33
2018-07-04T07:27:31.662Z,98077.25
2018-07-04T07:30:15.668Z,98075.09
2018-07-04T07:32:57.362Z,98075.96
2018-07-04T07:35:38.643Z,98070.56
2018-07-04T07:38:19.332Z,98077.41
2018-07-04T07:41:00.092Z,98072.45
2018-07-04T07:43:40.942Z,98077.00
2018-07-04T07:46:23.864Z,98069.39
2018-07-04T07:49:09.667Z,98072.51
2018-07-04T07:51:52.588Z,98068.79
2018-07-04T07:54:33.150Z,98041.76
2018-07-04T07:57:13.843Z,98073.94
2018-07-04T07:59:54.342Z,98069.30
2018-07-04T08:02:35.359Z,98068.67
2018-07-04T08:05:16.023Z,98071.31
2018-07-04T08:07:57.989Z,98078.99
2018-07-04T08:10:38.887Z,98082.59
2018-07-04T08:16:15.425Z,98095.66
2018-07-04T08:18:56.061Z,98092.55
2018-07-04T08:21:36.998Z,98091.72
2018-07-04T08:24:33.633Z,98106.20
2018-07-04T08:27:15.209Z,98104.74
2018-07-04T08:29:55.877Z,98106.30
2018-07-04T08:32:36.879Z,98107.36
2018-07-04T08:35:20.073Z,98112.61
2018-07-04T08:38:00.604Z,98105.84
2018-07-04T08:40:41.445Z,98107.74
2018-07-04T08:43:22.232Z,98105.94
2018-07-04T08:46:02.544Z,98101.28
2018-07-04T08:48:44.085Z,98099.44
2018-07-04T08:51:26.986Z,98101.78
2018-07-04T08:54:07.910Z,98099.19
2018-07-04T08:56:48.312Z,98097.81
2018-07-04T08:59:30.218Z,98090.47
2018-07-04T09:02:10.670Z,98095.08
2018-07-04T09:04:52.985Z,98093.20
2018-07-04T09:07:33.857Z,98101.17
2018-07-04T09:10:15.239Z,98104.02
2018-07-04T09:19:24.685Z,98127.89
2018-07-04T09:25:02.360Z,98124.80
2018-07-04T09:27:45.818Z,98120.66
2018-07-04T09:30:29.825Z,98117.94
2018-07-04T09:33:10.921Z,98119.80
2018-07-04T09:35:51.304Z,98110.52
2018-07-04T09:38:32.750Z,98111.17
2018-07-04T09:41:13.558Z,98102.45
2018-07-04T09:43:55.322Z,98111.31
2018-07-04T09:46:37.122Z,98099.27
2018-07-04T09:49:26.082Z,98093.91
2018-07-04T09:52:10.817Z,98099.25
2018-07-04T09:55:07.044Z,98083.62
2018-07-04T09:58:00.105Z,98098.39
2018-07-04T10:00:46.894Z,98102.36
2018-07-04T10:03:27.541Z,98109.72
2018-07-04T10:06:10.676Z,98105.14
2018-07-04T10:08:51.186Z,98115.30
2018-07-04T10:11:31.879Z,98120.75
2018-07-04T10:14:12.154Z,98130.77
2018-07-04T10:16:54.797Z,98130.39
2018-07-04T10:19:35.281Z,98150.03
2018-07-04T10:22:18.208Z,98162.44
2018-07-04T10:24:59.336Z,98170.48
2018-07-04T10:27:43.577Z,98172.36
2018-07-04T10:30:23.922Z,98186.97
2018-07-04T10:33:05.762Z,98199.94
2018-07-04T10:35:46.085Z,98208.44
2018-07-04T10:38:26.613Z,98207.22
2018-07-04T10:41:06.968Z,98217.89
2018-07-04T10:43:48.661Z,98240.80
2018-07-04T10:46:29.021Z,98251.10
2018-07-04T10:49:09.532Z,98273.25
2018-07-04T10:51:49.938Z,98276.89
2018-07-04T10:54:32.739Z,98255.30
2018-07-04T10:57:13.477Z,98232.34
2018-07-04T10:59:54.067Z,98222.94
2018-07-04T11:02:34.595Z,98229.43
2018-07-04T11:05:17.277Z,98223.45
2018-07-04T11:07:57.771Z,98211.87
2018-07-04T11:10:38.312Z,98201.13
2018-07-04T11:13:18.764Z,98186.92
2018-07-04T11:15:59.512Z,98173.81
2018-07-04T11:18:40.081Z,98162.84
2018-07-04T11:21:20.689Z,98162.72
2018-07-04T11:24:01.203Z,98161.81
2018-07-04T11:26:41.870Z,98154.74
2018-07-04T11:29:22.379Z,98153.94
2018-07-04T11:32:17.430Z,98148.05
2018-07-04T11:34:58.116Z,98147.77
2018-07-04T11:37:38.909Z,98152.35
2018-07-04T11:40:19.261Z,98154.63
2018-07-04T11:43:22.086Z,98155.74
2018-07-04T11:45:58.633Z,98152.22
2018-07-04T11:48:28.145Z,98150.41
2018-07-04T11:50:56.525Z,98154.16
2018-07-04T11:53:24.697Z,98153.06
2018-07-04T11:55:53.048Z,98144.53
2018-07-04T11:58:21.464Z,98143.48
2018-07-04T12:00:49.706Z,98144.17
2018-07-04T12:03:20.559Z,98146.19
2018-07-04T12:06:01.141Z,98145.91
2018-07-04T12:08:29.634Z,98140.44
2018-07-04T12:10:58.420Z,98140.66
2018-07-04T12:13:27.508Z,98133.83
2018-07-04T12:15:56.023Z,98136.33
2018-07-04T12:18:24.633Z,98136.58
2018-07-04T12:20:52.814Z,98138.78
2018-07-04T12:23:22.696Z,98140.92
2018-07-04T12:25:52.101Z,98138.57
2018-07-04T12:28:20.216Z,98131.88
2018-07-04T12:30:48.377Z,98123.60
2018-07-04T12:33:17.751Z,98118.13
2018-07-04T12:35:46.137Z,98119.30
2018-07-04T12:38:14.306Z,98108.89
2018-07-04T12:40:44.385Z,98104.91
2018-07-04T12:43:15.836Z,98100.20
2018-07-04T12:45:43.982Z,98094.90
2018-07-04T12:48:12.421Z,98094.75
2018-07-04T12:50:40.722Z,98085.69
2018-07-04T12:53:08.954Z,98077.52
2018-07-04T12:55:49.547Z,98082.36
2018-07-04T12:58:31.639Z,98077.81
2018-07-04T13:01:12.328Z,98086.70
2018-07-04T13:03:52.893Z,98085.07
2018-07-04T13:06:33.953Z,98070.92
2018-07-04T13:09:14.461Z,98065.81
2018-07-04T13:11:55.674Z,98061.41
2018-07-04T13:14:36.369Z,98063.35
2018-07-04T13:17:17.217Z,98062.91
2018-07-04T13:19:58.262Z,98053.91
2018-07-04T13:22:43.599Z,98046.78
2018-07-04T13:25:25.136Z,98056.04
2018-07-04T13:28:06.621Z,98061.27
2018-07-04T13:30:47.210Z,98071.37
2018-07-04T13:33:28.313Z,98076.00
2018-07-04T13:36:08.718Z,98076.59
2018-07-04T13:38:49.955Z,98085.45
2018-07-04T13:41:35.279Z,98087.37
2018-07-04T13:44:18.061Z,98090.36
2018-07-04T13:47:03.800Z,98099.48
2018-07-04T13:49:44.452Z,98099.94
2018-07-04T13:52:24.965Z,98092.81
2018-07-04T13:55:06.372Z,98095.83
2018-07-04T13:57:46.824Z,98088.92
2018-07-04T14:00:27.544Z,98086.89
2018-07-04T14:03:08.095Z,98072.53
2018-07-04T14:05:48.379Z,98070.08
2018-07-04T14:08:28.861Z,98072.59
2018-07-04T14:11:09.450Z,98071.63
2018-07-04T14:13:49.968Z,98071.51
2018-07-04T14:16:30.544Z,98071.53
2018-07-04T14:19:10.920Z,98078.27
2018-07-04T14:21:51.538Z,98077.06
2018-07-04T14:24:32.357Z,98070.61
2018-07-04T14:27:17.148Z,98074.99
2018-07-04T14:29:58.393Z,98070.00
2018-07-04T14:32:39.024Z,98079.93
2018-07-04T14:35:19.445Z,98074.33
2018-07-04T14:38:03.936Z,98069.19
2018-07-04T14:40:44.392Z,98069.45
2018-07-04T14:43:24.883Z,98067.54
2018-07-04T14:46:05.224Z,98057.50
2018-07-04T14:48:45.861Z,98045.48
2018-07-04T14:51:28.810Z,98032.56
2018-07-04T14:54:09.528Z,98032.48
2018-07-04T14:56:50.017Z,98039.15
2018-07-04T14:59:31.021Z,98059.02
2018-07-04T15:02:11.546Z,98072.13
2018-07-04T15:04:52.244Z,98082.22
2018-07-04T15:07:32.604Z,98085.34
2018-07-04T15:10:13.564Z,98090.08
2018-07-04T15:12:54.516Z,98085.94
2018-07-04T15:15:36.264Z,98102.52
2018-07-04T15:18:16.578Z,98130.13
2018-07-04T15:20:57.282Z,98140.47
2018-07-04T15:23:37.763Z,98148.78
2018-07-04T15:26:18.420Z,98137.83
2018-07-04T15:29:00.175Z,98111.86
2018-07-04T15:37:28.205Z,98072.13
2018-07-04T15:42:57.456Z,98027.59
2018-07-04T15:45:38.851Z,98009.10
2018-07-04T15:48:19.574Z,98014.08
2018-07-04T15:51:07.351Z,98005.70
2018-07-04T15:53:48.626Z,97981.73
2018-07-04T15:59:15.211Z,97977.78
2018-07-04T16:01:55.500Z,97979.45
2018-07-04T16:04:36.069Z,97973.22
2018-07-04T16:07:17.321Z,97977.87
2018-07-04T16:13:25.490Z,97976.55
2018-07-04T16:16:06.538Z,97987.39
2018-07-04T16:18:47.057Z,97988.25
2018-07-04T16:21:28.182Z,97988.32
2018-07-04T16:24:08.880Z,97984.53
2018-07-04T16:26:54.006Z,97989.48
2018-07-04T16:29:34.462Z,97985.94
2018-07-04T16:32:15.439Z,97988.09
2018-07-04T16:34:55.755Z,97990.48
2018-07-04T16:37:36.602Z,97980.25
2018-07-04T16:40:17.021Z,97987.52
2018-07-04T16:42:58.991Z,97972.62
2018-07-04T16:45:39.613Z,97969.09
2018-07-04T16:48:21.535Z,97958.06
2018-07-04T16:51:02.022Z,97957.66
2018-07-04T16:53:44.863Z,97952.95
2018-07-04T16:56:26.069Z,97950.22
2018-07-04T16:59:11.095Z,97955.84
2018-07-04T17:01:52.192Z,97949.98
2018-07-04T17:04:33.580Z,97944.94
2018-07-04T17:07:15.635Z,97955.06
2018-07-04T17:10:01.333Z,97969.27
2018-07-04T17:12:42.326Z,97962.75
2018-07-04T17:15:24.539Z,97965.87
2018-07-04T17:18:06.216Z,97965.95
2018-07-04T17:20:49.790Z,97965.58
2018-07-04T17:23:30.432Z,97970.36
2018-07-04T17:26:11.193Z,97973.37
2018-07-04T17:28:52.378Z,97971.60
2018-07-04T17:31:33.187Z,97970.92
2018-07-04T17:34:14.021Z,97958.31
2018-07-04T17:36:55.160Z,97950.54
2018-07-04T17:39:38.035Z,97939.09
2018-07-04T17:42:20.102Z,97941.06
2018-07-04T17:45:00.716Z,97946.66
2018-07-04T17:47:42.114Z,97948.16
2018-07-04T17:50:24.715Z,97972.96
2018-07-04T17:53:10.687Z,97985.24
2018-07-04T17:55:53.504Z,97991.34
2018-07-04T18:01:43.079Z,97989.72
2018-07-04T18:04:24.285Z,97994.30
2018-07-04T18:07:05.098Z,97987.31
2018-07-04T18:09:51.321Z,97976.18
2018-07-04T18:15:45.616Z,97986.27
2018-07-04T18:18:26.180Z,97984.49
2018-07-04T18:21:14.110Z,97980.18
2018-07-04T18:23:56.074Z,97985.55
2018-07-04T18:26:40.275Z,97983.69
2018-07-04T18:29:27.660Z,97983.63
2018-07-04T18:32:08.729Z,97974.45
2018-07-04T18:34:49.332Z,97971.45
2018-07-04T18:37:31.184Z,97975.48
2018-07-04T18:40:11.697Z,97974.22
2018-07-04T18:42:52.389Z,97980.75
2018-07-04T18:45:33.092Z,97984.94
2018-07-04T18:48:14.190Z,97976.43
2018-07-04T18:50:56.359Z,97959.70
2018-07-04T18:53:41.318Z,97961.33
2018-07-04T18:56:22.720Z,97960.61
2018-07-04T18:59:04.133Z,97957.36
2018-07-04T19:01:44.967Z,97952.56
2018-07-04T19:04:26.728Z,97943.92
2018-07-04T19:07:10.803Z,97949.60
2018-07-04T19:10:02.053Z,97960.95
2018-07-04T19:12:42.688Z,97930.01
2018-07-04T19:15:30.011Z,97961.30
2018-07-04T19:18:10.812Z,97961.30
2018-07-04T19:20:52.305Z,97955.84
2018-07-04T19:23:34.639Z,97955.31
2018-07-04T19:29:01.772Z,97946.39
2018-07-04T19:37:29.623Z,97946.29
2018-07-04T19:40:10.880Z,97946.10
2018-07-04T19:42:53.620Z,97941.63
2018-07-04T19:45:38.826Z,97937.13
2018-07-04T19:48:19.421Z,97925.98
2018-07-04T19:51:00.349Z,97927.30
2018-07-04T19:53:41.116Z,97921.66
2018-07-04T19:56:24.485Z,97923.48
2018-07-04T19:59:06.234Z,97931.47
2018-07-04T20:01:49.235Z,97932.14
2018-07-04T20:04:30.667Z,97929.64
2018-07-04T20:07:12.310Z,97933.44
2018-07-04T20:09:53.106Z,97944.77
2018-07-04T20:12:35.101Z,97946.10
2018-07-04T20:15:15.698Z,97941.73
2018-07-04T20:17:59.324Z,97948.91
2018-07-04T20:20:42.022Z,97954.52
2018-07-04T20:23:29.068Z,97955.34
2018-07-04T20:26:10.543Z,97953.70
2018-07-04T20:28:59.476Z,97948.55
2018-07-04T20:31:40.420Z,97951.02
2018-07-04T20:34:23.704Z,97944.37
2018-07-04T20:37:04.667Z,97946.98
2018-07-04T20:39:46.507Z,97949.27
2018-07-04T20:42:27.157Z,97953.53
2018-07-04T20:45:08.400Z,97949.70
2018-07-04T20:47:49.211Z,97947.88
2018-07-04T20:50:33.612Z,97950.30
2018-07-04T20:53:14.633Z,97949.06
2018-07-04T20:55:55.832Z,97960.66
2018-07-04T20:58:36.524Z,97969.01
2018-07-04T21:01:19.632Z,97961.67
2018-07-04T21:04:00.874Z,97977.29
2018-07-04T21:06:42.770Z,97978.75
2018-07-04T21:09:23.826Z,97974.56
2018-07-04T21:12:04.823Z,97978.19
2018-07-04T21:14:45.581Z,97972.87
2018-07-04T21:17:26.721Z,97960.54
2018-07-04T21:20:07.845Z,97966.27
2018-07-04T21:22:53.109Z,97965.73
2018-07-04T21:25:34.509Z,97972.63
2018-07-04T21:28:15.548Z,97967.68
2018-07-04T21:30:56.198Z,97973.73
2018-07-04T21:33:39.448Z,97960.59
2018-07-04T21:36:20.685Z,97962.83
2018-07-04T21:39:04.358Z,97957.27
2018-07-04T21:41:45.263Z,97955.23
2018-07-04T21:44:29.777Z,97953.37
2018-07-04T21:47:10.449Z,97954.16
2018-07-04T21:49:55.478Z,97945.05
2018-07-04T21:52:36.315Z,97946.38
2018-07-04T21:55:20.297Z,97942.58
2018-07-04T21:58:02.364Z,97938.49
2018-07-04T22:00:45.389Z,97937.95
2018-07-04T22:03:26.371Z,97944.41
2018-07-04T22:06:11.414Z,97937.41
2018-07-04T22:08:51.954Z,97941.34
2018-07-04T22:11:32.991Z,97935.80
2018-07-04T22:14:13.421Z,97942.49
2018-07-04T22:16:54.182Z,97943.77
2018-07-04T22:19:34.786Z,97936.30
2018-07-04T22:22:16.862Z,97933.47
2018-07-04T22:24:57.584Z,97927.68
2018-07-04T22:27:40.563Z,97930.44
2018-07-04T22:30:21.184Z,97920.86
2018-07-04T22:33:04.735Z,97920.86
2018-07-04T22:35:45.148Z,97920.49
2018-07-04T22:38:27.053Z,97924.23
2018-07-04T22:41:07.609Z,97922.42
2018-07-04T22:43:49.705Z,97926.71
2018-07-04T22:46:30.460Z,97929.04
2018-07-04T22:49:13.281Z,97928.02
2018-07-04T22:51:53.862Z,97921.71
2018-07-04T22:54:34.724Z,97924.72
2018-07-04T22:57:15.558Z,97923.39
2018-07-04T23:00:00.161Z,97931.58
2018-07-04T23:02:40.894Z,97933.50
2018-07-04T23:05:25.486Z,97922.69
2018-07-04T23:08:07.285Z,97920.17
2018-07-04T23:10:48.965Z,97926.58
2018-07-04T23:13:29.612Z,97930.53
2018-07-04T23:16:10.667Z,97928.50
2018-07-04T23:18:51.078Z,97927.80
2018-07-04T23:21:42.029Z,97924.20
2018-07-04T23:24:23.058Z,97927.06
2018-07-04T23:27:03.934Z,97930.63
2018-07-04T23:29:44.870Z,97920.73
2018-07-04T23:32:26.794Z,97921.63
2018-07-04T23:35:07.765Z,97921.36
2018-07-04T23:37:49.926Z,97915.97
2018-07-04T23:40:30.394Z,97916.14
2018-07-04T23:43:13.616Z,97920.05
2018-07-04T23:45:53.882Z,97914.63
2018-07-04T23:51:30.350Z,97909.08
2018-07-04T23:54:10.681Z,97909.91
2018-07-04T23:56:52.941Z,97907.39
2018-07-04T23:59:33.296Z,97905.52
